Time;durP1;ratioP1;P1;durP2;ratioP2;P2;SDS_P1;SDS_P2;PMS_P1;PMS_P2;Temp;Humidity;BMP_temperature;BMP_pressure;BME280_temperature;BME280_humidity;BME280_pressure;Samples;Min_cycle;Max_cycle;Signal;HPM_P1;HPM_P2
2023/06/11 00:01:16;;;;;;;1.47;0.90;;;22.60;85.90;;;;;;4975891;28;20473;-85
2023/06/11 00:03:46;;;;;;;1.50;0.90;;;22.60;85.80;;;;;;5001053;28;20478;-85
2023/06/11 00:06:17;;;;;;;1.47;0.90;;;22.60;85.70;;;;;;4974143;28;20476;-85
2023/06/11 00:08:44;;;;;;;1.73;1.10;;;22.60;85.80;;;;;;5004724;28;20462;-84
2023/06/11 00:11:13;;;;;;;1.50;1.10;;;22.60;85.90;;;;;;4974882;28;20564;-84
2023/06/11 00:13:40;;;;;;;1.50;0.90;;;22.50;85.80;;;;;;4997377;28;20493;-84
2023/06/11 00:16:07;;;;;;;1.43;0.90;;;22.50;86.00;;;;;;4979855;28;20461;-83
2023/06/11 00:18:40;;;;;;;1.50;0.90;;;22.50;85.70;;;;;;5003480;28;20529;-84
2023/06/11 00:21:07;;;;;;;1.50;0.90;;;22.50;85.70;;;;;;4969778;28;20471;-83
2023/06/11 00:23:36;;;;;;;1.43;0.90;;;22.50;85.80;;;;;;5000006;28;20513;-84
2023/06/11 00:26:05;;;;;;;1.47;0.90;;;22.50;86.00;;;;;;4973023;28;20572;-84
2023/06/11 00:28:34;;;;;;;1.40;0.90;;;22.40;86.10;;;;;;4996482;28;20552;-84
2023/06/11 00:31:01;;;;;;;1.47;0.90;;;22.40;86.20;;;;;;4974930;28;20469;-84
2023/06/11 00:33:28;;;;;;;1.47;0.90;;;22.40;86.20;;;;;;5005131;28;20790;-84
2023/06/11 00:35:55;;;;;;;1.50;1.00;;;22.40;86.30;;;;;;4970891;28;20462;-84
2023/06/11 00:38:22;;;;;;;1.47;0.90;;;22.40;86.40;;;;;;5001316;28;20462;-85
2023/06/11 00:40:49;;;;;;;1.40;0.90;;;22.30;86.30;;;;;;4975863;28;20555;-83
2023/06/11 00:43:17;;;;;;;1.43;0.90;;;22.30;86.30;;;;;;5024482;28;20504;-84
2023/06/11 00:45:45;;;;;;;1.43;0.90;;;22.30;86.40;;;;;;4977761;28;20489;-84
2023/06/11 00:48:19;;;;;;;2.07;1.87;;;22.30;86.20;;;;;;4993245;28;20495;-86
2023/06/11 00:50:47;;;;;;;1.97;1.30;;;22.20;86.70;;;;;;4983287;28;20488;-83
2023/06/11 00:53:14;;;;;;;1.50;1.00;;;22.20;86.70;;;;;;4973961;28;20470;-84
2023/06/11 00:55:41;;;;;;;1.50;0.90;;;22.20;86.70;;;;;;4982531;28;20524;-83
2023/06/11 00:58:13;;;;;;;1.43;0.90;;;22.10;87.10;;;;;;5003462;28;20541;-84
2023/06/11 01:00:42;;;;;;;1.50;0.90;;;22.10;87.20;;;;;;4982477;28;21369;-85
2023/06/11 01:03:17;;;;;;;1.47;0.90;;;22.10;87.30;;;;;;4989193;28;20490;-84
2023/06/11 01:05:49;;;;;;;1.47;0.90;;;22.00;87.60;;;;;;4987730;28;20480;-85
2023/06/11 01:08:19;;;;;;;7.80;2.07;;;22.00;87.40;;;;;;4968972;28;20915;-85
2023/06/11 01:10:47;;;;;;;1.50;0.90;;;22.00;87.40;;;;;;4984439;28;20462;-85
2023/06/11 01:13:14;;;;;;;1.50;0.90;;;21.90;87.70;;;;;;4968509;28;20481;-84
2023/06/11 01:15:41;;;;;;;1.50;0.90;;;21.90;87.50;;;;;;4990072;28;20470;-85
2023/06/11 01:18:19;;;;;;;1.60;1.10;;;21.90;87.30;;;;;;4987112;28;21030;-84
2023/06/11 01:20:51;;;;;;;1.50;0.90;;;21.90;87.60;;;;;;4986466;28;20469;-85
2023/06/11 01:23:25;;;;;;;1.50;1.10;;;21.90;88.20;;;;;;4970408;28;20513;-85
2023/06/11 01:26:15;;;;;;;1.50;0.90;;;21.80;87.70;;;;;;4974211;28;20481;-85
2023/06/11 01:28:47;;;;;;;1.50;0.90;;;21.80;87.70;;;;;;5003074;28;20460;-85
2023/06/11 01:31:15;;;;;;;1.50;0.90;;;21.80;87.80;;;;;;4982805;28;20564;-84
2023/06/11 01:33:43;;;;;;;1.50;0.90;;;21.80;88.00;;;;;;5007330;28;20485;-85
2023/06/11 01:36:43;;;;;;;1.50;0.90;;;21.80;88.00;;;;;;4979131;28;20478;-84
2023/06/11 01:39:11;;;;;;;1.47;0.90;;;21.70;88.40;;;;;;4986579;28;20461;-85
2023/06/11 01:41:38;;;;;;;1.47;0.90;;;21.70;88.40;;;;;;4977952;28;21153;-85
2023/06/11 01:44:07;;;;;;;1.50;0.90;;;21.60;88.30;;;;;;5000441;28;20493;-85
2023/06/11 01:46:33;;;;;;;1.47;0.90;;;21.60;88.30;;;;;;4979532;28;20726;-85
2023/06/11 01:49:00;;;;;;;1.50;1.10;;;21.60;88.10;;;;;;5004671;28;20848;-85
2023/06/11 01:51:27;;;;;;;1.50;1.00;;;21.60;87.80;;;;;;4984352;28;20516;-86
2023/06/11 01:53:55;;;;;;;1.50;0.90;;;21.60;88.10;;;;;;5003506;28;20485;-85
2023/06/11 01:56:22;;;;;;;1.47;0.90;;;21.60;88.30;;;;;;4979958;28;21117;-86
2023/06/11 01:58:49;;;;;;;1.50;1.00;;;21.60;88.50;;;;;;5009402;28;20458;-86
2023/06/11 02:01:20;;;;;;;1.43;0.90;;;21.60;88.40;;;;;;4983654;28;20504;-86
2023/06/11 02:03:47;;;;;;;1.40;0.90;;;21.60;88.20;;;;;;4995055;28;20525;-85
2023/06/11 02:06:14;;;;;;;1.40;0.90;;;21.60;88.30;;;;;;4980089;28;20598;-85
2023/06/11 02:08:43;;;;;;;1.50;0.90;;;21.50;88.60;;;;;;5009284;28;20454;-86
2023/06/11 02:11:42;;;;;;;1.50;0.90;;;21.50;89.00;;;;;;4975302;28;20493;-85
2023/06/11 02:14:10;;;;;;;1.43;0.90;;;21.50;88.70;;;;;;4996947;28;20486;-85
2023/06/11 02:19:32;;;;;;;1.50;0.90;;;21.50;89.00;;;;;;4983078;28;20462;-84
2023/06/11 02:21:59;;;;;;;1.50;0.90;;;21.50;89.00;;;;;;4983602;28;20483;-85
2023/06/11 02:24:33;;;;;;;1.50;1.00;;;21.40;88.90;;;;;;4993956;28;20517;-86
2023/06/11 02:27:11;;;;;;;1.43;0.90;;;21.40;88.80;;;;;;4989525;28;20959;-86
2023/06/11 02:33:14;;;;;;;1.50;0.90;;;21.40;88.70;;;;;;4986610;28;20768;-86
2023/06/11 02:39:10;;;;;;;1.47;0.90;;;21.40;89.10;;;;;;4920515;29;20971;-87
2023/06/11 02:44:29;;;;;;;1.43;0.90;;;21.30;89.80;;;;;;4985031;28;20490;-88
2023/06/11 02:46:55;;;;;;;1.50;1.00;;;21.30;89.40;;;;;;4986133;28;20485;-86
2023/06/11 02:49:22;;;;;;;1.43;0.90;;;21.20;89.50;;;;;;4994280;28;20476;-86
2023/06/11 02:51:51;;;;;;;1.43;0.90;;;21.20;90.20;;;;;;4978874;28;20535;-86
2023/06/11 02:54:17;;;;;;;1.50;0.90;;;21.20;90.00;;;;;;4995358;28;20537;-87
2023/06/11 02:56:44;;;;;;;1.43;0.90;;;21.20;90.00;;;;;;4982402;28;20504;-87
2023/06/11 02:59:12;;;;;;;1.50;0.90;;;21.20;89.90;;;;;;4992208;28;20665;-86
2023/06/11 03:01:41;;;;;;;1.47;0.90;;;21.10;90.70;;;;;;4980314;28;20484;-86
2023/06/11 03:04:08;;;;;;;1.50;0.90;;;21.10;91.30;;;;;;4991849;28;20500;-86
2023/06/11 03:06:37;;;;;;;1.47;0.90;;;21.10;91.20;;;;;;4973116;28;20496;-85
2023/06/11 03:09:05;;;;;;;1.43;0.90;;;21.10;91.40;;;;;;4986425;28;20536;-86
2023/06/11 03:11:32;;;;;;;1.50;1.10;;;21.10;90.50;;;;;;4971880;28;20489;-83
2023/06/11 03:13:59;;;;;;;1.47;0.90;;;21.10;90.90;;;;;;4994116;28;20503;-84
2023/06/11 03:16:26;;;;;;;1.47;0.90;;;21.10;91.50;;;;;;4978177;28;20560;-83
2023/06/11 03:18:53;;;;;;;1.50;0.90;;;21.10;91.20;;;;;;4994604;28;20518;-83
2023/06/11 03:24:55;;;;;;;1.47;0.90;;;21.10;91.50;;;;;;4919249;28;20800;-85
2023/06/11 03:27:22;;;;;;;1.43;0.90;;;21.10;91.80;;;;;;4996631;28;20484;-85
2023/06/11 03:29:48;;;;;;;1.47;0.90;;;21.10;91.80;;;;;;4988187;28;20463;-86
2023/06/11 03:32:15;;;;;;;1.50;0.90;;;21.10;91.70;;;;;;4985773;28;20492;-84
2023/06/11 03:34:42;;;;;;;1.47;0.90;;;21.00;92.30;;;;;;4986893;28;20468;-83
2023/06/11 03:37:09;;;;;;;1.50;0.90;;;21.00;92.00;;;;;;4980509;28;20496;-84
2023/06/11 03:39:36;;;;;;;1.43;0.90;;;21.00;92.20;;;;;;4986855;28;20466;-83
2023/06/11 03:42:05;;;;;;;1.50;1.20;;;21.00;91.70;;;;;;4977565;28;20499;-82
2023/06/11 03:44:33;;;;;;;1.50;0.90;;;21.00;91.90;;;;;;5035907;22;20489;-85
2023/06/11 03:46:59;;;;;;;1.43;0.90;;;21.10;92.20;;;;;;5016108;28;20489;-86
2023/06/11 03:49:26;;;;;;;1.40;0.90;;;21.00;92.60;;;;;;5013740;28;20549;-85
2023/06/11 03:51:53;;;;;;;1.40;0.90;;;21.10;92.40;;;;;;5002905;28;20851;-84
2023/06/11 03:54:20;;;;;;;1.50;0.90;;;21.10;92.10;;;;;;5007212;28;20487;-84
2023/06/11 03:56:47;;;;;;;1.47;0.87;;;21.10;92.20;;;;;;5000491;28;20487;-85
2023/06/11 03:59:15;;;;;;;1.43;0.90;;;21.10;92.20;;;;;;5003360;28;20652;-87
2023/06/11 04:01:42;;;;;;;1.60;1.30;;;21.10;92.50;;;;;;4997662;28;20482;-87
2023/06/11 04:04:09;;;;;;;1.47;0.90;;;21.10;92.30;;;;;;5005284;28;20477;-82
2023/06/11 04:06:37;;;;;;;1.50;1.10;;;21.10;92.60;;;;;;4996156;28;20880;-86
2023/06/11 04:09:04;;;;;;;1.50;0.90;;;21.10;93.10;;;;;;4998115;28;20725;-82
2023/06/11 04:11:31;;;;;;;1.47;0.90;;;21.10;92.10;;;;;;4985531;28;20495;-85
2023/06/11 04:13:58;;;;;;;1.50;1.20;;;21.20;92.60;;;;;;4995191;28;20581;-83
2023/06/11 04:16:26;;;;;;;1.43;0.90;;;21.20;92.80;;;;;;4993661;28;20495;-83
2023/06/11 04:18:53;;;;;;;1.50;0.90;;;21.20;92.60;;;;;;5003163;28;20665;-81
2023/06/11 04:21:20;;;;;;;1.43;0.90;;;21.20;92.40;;;;;;4994033;28;20476;-79
2023/06/11 04:23:47;;;;;;;1.47;0.87;;;21.20;92.80;;;;;;5012438;28;20480;-84
2023/06/11 04:26:16;;;;;;;1.50;0.90;;;21.20;92.80;;;;;;4998096;28;20556;-83
2023/06/11 04:28:44;;;;;;;1.50;0.90;;;21.20;93.10;;;;;;5008715;28;20460;-83
2023/06/11 04:31:12;;;;;;;1.47;0.90;;;21.30;92.60;;;;;;4988015;28;20966;-83
2023/06/11 04:33:40;;;;;;;1.50;1.00;;;21.30;92.40;;;;;;5008500;28;20508;-84
2023/06/11 04:36:09;;;;;;;1.50;0.90;;;21.30;93.20;;;;;;4995894;28;20473;-82
2023/06/11 04:38:37;;;;;;;1.47;0.90;;;21.40;92.50;;;;;;5016794;28;20457;-85
2023/06/11 04:41:05;;;;;;;1.50;1.00;;;21.50;92.40;;;;;;4994539;28;20457;-82
2023/06/11 04:43:33;;;;;;;1.43;0.83;;;21.50;92.50;;;;;;5011137;28;21019;-84
2023/06/11 04:46:00;;;;;;;1.40;0.90;;;21.60;92.70;;;;;;4993703;28;20510;-83
2023/06/11 04:48:28;;;;;;;1.60;1.10;;;21.70;92.90;;;;;;5007886;28;20453;-84
2023/06/11 04:50:57;;;;;;;1.43;0.90;;;21.80;92.60;;;;;;4993267;28;20483;-83
2023/06/11 04:53:27;;;;;;;1.50;0.90;;;21.90;92.30;;;;;;5007965;28;20476;-84
2023/06/11 04:55:55;;;;;;;1.43;0.90;;;22.00;91.80;;;;;;4985077;28;20469;-82
2023/06/11 04:58:22;;;;;;;1.47;0.90;;;22.10;92.30;;;;;;5002494;28;20887;-83
2023/06/11 05:00:51;;;;;;;1.50;0.90;;;22.30;91.20;;;;;;4985844;28;20469;-81
2023/06/11 05:03:18;;;;;;;1.43;0.90;;;22.40;90.20;;;;;;5007318;28;20966;-81
2023/06/11 05:05:49;;;;;;;1.50;0.90;;;22.50;90.50;;;;;;4996563;28;20480;-84
2023/06/11 05:08:18;;;;;;;1.43;0.90;;;22.50;90.00;;;;;;4967421;28;20971;-84
2023/06/11 05:10:45;;;;;;;1.43;0.90;;;22.60;90.00;;;;;;4997799;28;20545;-83
2023/06/11 05:13:12;;;;;;;1.43;0.90;;;22.80;90.10;;;;;;5002615;28;20992;-86
2023/06/11 05:15:39;;;;;;;1.47;0.90;;;22.90;89.70;;;;;;5000444;28;20449;-84
2023/06/11 05:18:05;;;;;;;1.47;0.90;;;23.00;89.30;;;;;;4998736;28;20486;-83
2023/06/11 05:20:32;;;;;;;2.17;1.53;;;23.20;88.80;;;;;;5000615;28;20473;-80
2023/06/11 05:22:59;;;;;;;1.47;0.90;;;23.30;88.40;;;;;;4996802;28;20491;-83
2023/06/11 05:25:28;;;;;;;1.47;0.90;;;23.40;89.20;;;;;;4998629;28;20461;-84
2023/06/11 05:27:58;;;;;;;1.47;0.90;;;23.60;88.50;;;;;;5000112;28;20558;-83
2023/06/11 05:30:25;;;;;;;1.43;0.90;;;23.70;87.70;;;;;;5000954;28;20462;-83
2023/06/11 05:32:53;;;;;;;1.50;1.10;;;23.90;87.50;;;;;;5001075;28;20497;-85
2023/06/11 05:35:20;;;;;;;1.50;0.90;;;23.80;87.10;;;;;;4997145;28;20493;-79
2023/06/11 05:37:46;;;;;;;1.43;0.87;;;23.80;87.70;;;;;;5000191;28;20484;-83
2023/06/11 05:40:14;;;;;;;1.50;0.90;;;23.80;87.70;;;;;;4995603;28;20497;-85
2023/06/11 05:42:42;;;;;;;1.43;0.90;;;23.90;87.60;;;;;;5002768;28;20490;-87
2023/06/11 05:45:09;;;;;;;1.43;0.90;;;23.90;87.40;;;;;;5001359;28;20467;-86
2023/06/11 05:47:36;;;;;;;1.47;0.90;;;24.10;87.20;;;;;;4999479;28;20487;-85
2023/06/11 05:50:03;;;;;;;1.80;1.30;;;24.00;86.80;;;;;;5001880;28;20461;-87
2023/06/11 05:52:30;;;;;;;1.50;1.10;;;24.10;87.00;;;;;;5003155;28;21018;-87
2023/06/11 05:54:57;;;;;;;1.50;1.00;;;24.10;86.60;;;;;;5006783;28;20536;-82
2023/06/11 05:57:24;;;;;;;1.50;0.90;;;24.20;86.70;;;;;;5003928;28;20485;-86
2023/06/11 05:59:53;;;;;;;1.47;0.90;;;24.20;86.90;;;;;;4994124;28;20469;-88
2023/06/11 06:02:19;;;;;;;1.50;0.90;;;24.20;86.80;;;;;;4999351;28;20484;-80
2023/06/11 06:04:48;;;;;;;1.43;0.90;;;24.40;86.20;;;;;;5002184;28;20457;-88
2023/06/11 06:07:15;;;;;;;1.47;0.90;;;24.60;85.90;;;;;;4994840;28;20491;-87
2023/06/11 06:09:42;;;;;;;1.50;1.00;;;24.60;85.70;;;;;;5000944;28;20460;-86
2023/06/11 06:12:10;;;;;;;1.50;1.00;;;24.70;85.80;;;;;;4999259;28;20486;-88
2023/06/11 06:14:37;;;;;;;1.47;0.90;;;24.80;85.30;;;;;;5005261;28;20805;-87
2023/06/11 06:17:06;;;;;;;1.50;1.20;;;24.90;84.80;;;;;;4993445;28;20488;-86
2023/06/11 06:19:33;;;;;;;1.50;1.00;;;25.10;84.60;;;;;;5003347;28;20597;-86
2023/06/11 06:21:59;;;;;;;1.50;0.83;;;25.20;83.50;;;;;;5006303;28;20490;-81
2023/06/11 06:24:26;;;;;;;1.70;1.43;;;25.30;84.20;;;;;;5001681;28;20504;-87
2023/06/11 06:26:56;;;;;;;1.50;0.90;;;25.40;83.40;;;;;;4995570;28;20650;-84
2023/06/11 06:29:23;;;;;;;1.50;0.87;;;25.50;83.20;;;;;;5002230;28;20476;-83
2023/06/11 06:31:49;;;;;;;1.47;0.90;;;25.70;82.20;;;;;;4998840;28;20483;-87
2023/06/11 06:34:18;;;;;;;1.50;0.80;;;25.80;82.70;;;;;;5007651;28;20493;-86
2023/06/11 06:36:45;;;;;;;1.70;1.33;;;26.00;82.00;;;;;;4995174;28;20471;-81
2023/06/11 06:39:12;;;;;;;1.47;0.80;;;26.10;80.60;;;;;;5007615;28;20457;-83
2023/06/11 06:41:38;;;;;;;1.50;0.90;;;26.10;80.30;;;;;;4998324;28;20673;-86
2023/06/11 06:44:05;;;;;;;1.50;0.90;;;26.20;80.40;;;;;;5001204;28;20917;-89
2023/06/11 06:46:32;;;;;;;1.73;1.47;;;26.20;80.00;;;;;;4997574;28;20484;-80
2023/06/11 06:48:59;;;;;;;1.50;0.90;;;26.20;79.90;;;;;;5005641;28;20464;-84
2023/06/11 06:51:27;;;;;;;1.50;0.80;;;26.40;80.20;;;;;;4992775;28;20495;-86
2023/06/11 06:53:54;;;;;;;1.50;1.10;;;26.40;79.50;;;;;;5003239;28;20560;-86
2023/06/11 06:56:21;;;;;;;1.60;1.10;;;26.50;78.90;;;;;;4995865;28;20498;-81
2023/06/11 06:58:48;;;;;;;1.60;1.10;;;26.70;79.70;;;;;;5011478;28;20649;-88
2023/06/11 07:01:15;;;;;;;1.50;1.10;;;26.90;78.40;;;;;;4995669;28;20493;-89
2023/06/11 07:03:42;;;;;;;1.50;0.90;;;27.00;78.10;;;;;;5011448;28;20486;-88
2023/06/11 07:06:09;;;;;;;1.50;0.80;;;27.00;78.50;;;;;;4992300;28;20486;-85
2023/06/11 07:08:39;;;;;;;1.70;1.50;;;27.00;77.60;;;;;;5011662;28;20469;-87
2023/06/11 07:11:07;;;;;;;1.50;1.00;;;27.10;78.40;;;;;;4988551;28;20485;-81
2023/06/11 07:13:35;;;;;;;1.50;0.80;;;27.30;77.60;;;;;;5000919;28;20476;-87
2023/06/11 07:16:08;;;;;;;1.43;0.80;;;27.30;76.70;;;;;;4999467;28;20463;-83
2023/06/11 07:18:38;;;;;;;1.50;1.00;;;27.40;77.30;;;;;;5017694;28;20468;-84
2023/06/11 07:21:05;;;;;;;1.47;0.80;;;27.50;76.60;;;;;;4994465;28;20535;-83
2023/06/11 07:23:32;;;;;;;1.43;0.80;;;27.70;76.30;;;;;;5008273;28;20480;-87
2023/06/11 07:26:00;;;;;;;1.47;0.80;;;27.80;75.00;;;;;;4990678;28;20470;-84
2023/06/11 07:28:27;;;;;;;1.40;0.80;;;27.80;75.60;;;;;;5004649;28;20461;-84
2023/06/11 07:30:54;;;;;;;1.50;1.00;;;27.90;75.00;;;;;;4991354;28;20457;-81
2023/06/11 07:33:20;;;;;;;1.90;1.53;;;27.90;74.80;;;;;;5004622;28;20504;-83
2023/06/11 07:35:49;;;;;;;1.93;1.43;;;27.80;74.90;;;;;;4997476;28;20475;-81
2023/06/11 07:38:19;;;;;;;1.50;0.90;;;27.80;75.10;;;;;;5012080;28;20487;-84
2023/06/11 07:40:46;;;;;;;1.47;0.80;;;27.90;75.40;;;;;;5000977;28;20503;-84
2023/06/11 07:43:14;;;;;;;1.50;1.10;;;27.90;75.30;;;;;;4973042;28;20490;-83
2023/06/11 07:45:43;;;;;;;1.50;1.00;;;28.10;74.90;;;;;;5004940;28;21040;-82
2023/06/11 07:48:10;;;;;;;1.47;0.80;;;28.20;74.50;;;;;;5005058;28;20503;-83
2023/06/11 07:50:41;;;;;;;1.50;0.80;;;28.30;74.40;;;;;;5003394;28;20468;-83
2023/06/11 07:53:14;;;;;;;2.20;2.00;;;28.60;74.60;;;;;;4984908;28;20481;-84
2023/06/11 07:55:43;;;;;;;1.50;0.90;;;28.90;74.00;;;;;;5004300;28;20463;-81
2023/06/11 07:58:12;;;;;;;1.47;0.90;;;29.10;73.10;;;;;;5010355;28;20503;-85
2023/06/11 08:01:01;;;;;;;1.47;0.90;;;29.30;73.10;;;;;;5006019;28;20482;-80
2023/06/11 08:03:28;;;;;;;1.50;0.90;;;29.50;71.70;;;;;;4980521;28;20499;-85
2023/06/11 08:05:55;;;;;;;1.47;0.80;;;29.60;71.90;;;;;;5003814;28;20463;-80
2023/06/11 08:08:22;;;;;;;1.40;0.83;;;29.40;71.80;;;;;;5013867;28;20488;-86
2023/06/11 08:10:50;;;;;;;1.47;0.80;;;29.30;71.90;;;;;;4999697;28;20459;-84
2023/06/11 08:13:18;;;;;;;1.50;0.90;;;29.40;72.50;;;;;;4995546;28;20484;-80
2023/06/11 08:15:45;;;;;;;2.23;1.30;;;29.50;71.80;;;;;;5006339;28;20487;-83
2023/06/11 08:18:13;;;;;;;1.47;0.80;;;29.60;71.70;;;;;;4978928;28;20468;-84
2023/06/11 08:20:40;;;;;;;1.47;1.00;;;29.70;71.40;;;;;;5003158;28;20486;-85
2023/06/11 08:23:07;;;;;;;1.50;1.20;;;29.50;71.40;;;;;;5004289;28;20495;-81
2023/06/11 08:25:36;;;;;;;1.50;0.90;;;29.30;71.80;;;;;;5003354;28;20488;-82
2023/06/11 08:28:03;;;;;;;1.80;0.90;;;29.50;72.70;;;;;;5008145;28;20483;-83
2023/06/11 08:30:32;;;;;;;1.43;0.80;;;29.60;71.90;;;;;;5005622;28;20507;-83
2023/06/11 08:32:59;;;;;;;1.43;0.80;;;29.70;71.50;;;;;;5010424;28;21056;-90
2023/06/11 08:35:27;;;;;;;1.40;0.80;;;29.80;71.10;;;;;;5004374;28;20543;-80
2023/06/11 08:37:54;;;;;;;1.60;1.23;;;29.90;70.60;;;;;;5010264;28;20515;-82
2023/06/11 08:40:25;;;;;;;1.50;0.80;;;30.10;71.30;;;;;;5011323;28;20456;-86
2023/06/11 08:42:52;;;;;;;1.47;0.90;;;30.40;69.90;;;;;;5012427;28;20565;-87
2023/06/11 08:45:19;;;;;;;1.50;0.90;;;30.50;69.70;;;;;;4998511;28;20555;-82
2023/06/11 08:47:50;;;;;;;1.47;0.80;;;30.50;69.60;;;;;;4998401;28;20507;-85
2023/06/11 08:50:19;;;;;;;1.43;0.80;;;30.60;69.80;;;;;;4999559;28;20462;-82
2023/06/11 08:52:51;;;;;;;2.03;1.10;;;30.70;69.60;;;;;;5004035;28;20494;-86
2023/06/11 08:55:18;;;;;;;2.37;1.10;;;30.70;68.60;;;;;;4999637;28;20456;-85
2023/06/11 08:57:45;;;;;;;1.40;0.80;;;30.60;68.90;;;;;;5003904;28;20228;-82
2023/06/11 09:00:14;;;;;;;1.50;1.00;;;30.50;68.80;;;;;;5002136;28;20500;-85
2023/06/11 09:02:41;;;;;;;1.50;0.90;;;30.60;70.40;;;;;;4996141;28;20480;-80
2023/06/11 09:05:11;;;;;;;1.47;0.80;;;30.80;68.90;;;;;;5001372;28;20206;-88
2023/06/11 09:07:39;;;;;;;1.40;0.80;;;30.90;68.70;;;;;;5003533;28;20508;-87
2023/06/11 09:10:10;;;;;;;1.50;0.90;;;30.90;68.60;;;;;;5002188;28;20468;-82
2023/06/11 09:12:39;;;;;;;1.50;0.90;;;31.00;68.20;;;;;;4996413;28;20233;-85
2023/06/11 09:15:07;;;;;;;1.43;0.80;;;31.10;67.90;;;;;;5000186;28;20210;-83
2023/06/11 09:17:37;;;;;;;1.47;0.90;;;31.10;67.30;;;;;;5005477;28;20220;-83
2023/06/11 09:20:07;;;;;;;1.47;0.80;;;31.20;66.70;;;;;;5003497;28;20211;-87
2023/06/11 09:22:36;;;;;;;1.47;0.80;;;31.30;65.80;;;;;;5000779;28;21013;-82
2023/06/11 09:25:09;;;;;;;1.43;0.83;;;31.30;66.40;;;;;;5003540;28;20205;-85
2023/06/11 09:27:37;;;;;;;1.47;0.80;;;31.30;66.40;;;;;;5005209;28;20221;-86
2023/06/11 09:30:12;;;;;;;1.47;0.80;;;31.30;66.80;;;;;;5003459;28;20655;-83
2023/06/11 09:32:39;;;;;;;1.40;0.83;;;31.50;66.10;;;;;;4984656;28;20972;-84
2023/06/11 09:35:10;;;;;;;1.40;0.80;;;31.70;65.10;;;;;;5000881;28;20213;-82
2023/06/11 09:37:46;;;;;;;1.43;0.80;;;31.70;65.90;;;;;;4986741;28;20253;-83
2023/06/11 09:40:17;;;;;;;1.47;0.80;;;31.80;66.40;;;;;;5001886;28;20201;-85
2023/06/11 09:42:45;;;;;;;1.50;1.00;;;31.90;67.50;;;;;;4985336;28;20636;-80
2023/06/11 09:45:16;;;;;;;1.43;0.80;;;31.90;64.80;;;;;;4998387;28;20206;-80
2023/06/11 09:47:44;;;;;;;1.43;0.80;;;31.60;66.30;;;;;;4994871;28;20807;-85
2023/06/11 09:50:14;;;;;;;1.47;0.90;;;31.60;65.80;;;;;;5001771;28;20208;-83
2023/06/11 09:52:42;;;;;;;2.07;1.87;;;31.80;65.10;;;;;;4998598;28;20256;-82
2023/06/11 09:55:10;;;;;;;1.50;0.80;;;31.90;65.20;;;;;;4998695;28;20205;-87
2023/06/11 09:57:40;;;;;;;1.77;1.63;;;31.90;64.10;;;;;;5002947;28;20274;-83
2023/06/11 10:00:12;;;;;;;1.43;0.80;;;32.00;65.10;;;;;;4998369;28;20201;-83
2023/06/11 10:02:44;;;;;;;1.80;1.30;;;32.10;62.70;;;;;;5000365;28;20752;-84
2023/06/11 10:11:03;;;;;;;1.47;0.80;;;32.40;62.70;;;;;;4988838;28;20205;-84
2023/06/11 10:14:02;;;;;;;2.23;2.03;;;32.40;60.20;;;;;;5042281;22;20282;-84
2023/06/11 10:16:36;;;;;;;1.60;1.30;;;32.60;58.80;;;;;;4983710;28;20764;-82
2023/06/11 10:19:30;;;;;;;1.40;0.80;;;32.60;60.50;;;;;;5000458;28;20194;-84
2023/06/11 10:22:02;;;;;;;1.50;0.90;;;32.60;61.10;;;;;;4988810;28;20321;-85
2023/06/11 10:24:37;;;;;;;1.50;0.90;;;32.50;59.70;;;;;;5001478;28;20340;-81
2023/06/11 10:27:08;;;;;;;1.40;0.80;;;32.60;60.30;;;;;;4990019;28;20221;-82
2023/06/11 10:29:40;;;;;;;1.43;0.80;;;32.80;60.40;;;;;;4999211;28;20240;-85
2023/06/11 10:32:17;;;;;;;1.83;1.63;;;32.90;59.40;;;;;;4989576;28;20235;-86
2023/06/11 10:34:45;;;;;;;1.73;1.17;;;33.10;59.60;;;;;;5009083;28;20220;-81
2023/06/11 10:37:12;;;;;;;1.42;0.80;;;33.20;57.80;;;;;;4994169;28;20845;-83
2023/06/11 10:39:51;;;;;;;1.40;0.80;;;33.00;57.90;;;;;;5005249;28;20295;-83
2023/06/11 10:42:24;;;;;;;3.00;1.38;;;32.80;58.30;;;;;;4986581;28;20231;-83
2023/06/11 10:44:58;;;;;;;1.43;1.00;;;33.00;59.20;;;;;;5002275;28;20208;-82
2023/06/11 10:47:25;;;;;;;1.40;0.80;;;33.10;57.90;;;;;;4992793;28;20338;-82
2023/06/11 10:49:53;;;;;;;1.40;0.80;;;33.40;57.80;;;;;;5002893;28;20214;-83
2023/06/11 10:55:10;;;;;;;1.50;1.00;;;33.80;55.60;;;;;;4997357;28;20211;-85
2023/06/11 10:57:41;;;;;;;1.42;1.00;;;33.90;54.20;;;;;;4982070;28;20232;-84
2023/06/11 11:00:11;;;;;;;1.40;0.80;;;33.90;55.30;;;;;;5004071;28;20268;-84
2023/06/11 11:02:39;;;;;;;1.45;0.80;;;33.80;55.40;;;;;;4986219;28;20707;-84
2023/06/11 11:05:10;;;;;;;1.45;0.80;;;33.60;56.00;;;;;;5000678;28;20309;-81
2023/06/11 11:07:37;;;;;;;1.50;0.90;;;33.70;57.20;;;;;;4990082;28;20320;-80
2023/06/11 11:10:08;;;;;;;2.25;1.42;;;33.50;55.40;;;;;;5000418;28;20205;-80
2023/06/11 11:12:39;;;;;;;1.60;1.40;;;33.40;55.20;;;;;;4988651;28;20229;-85
2023/06/11 11:15:12;;;;;;;1.40;0.80;;;33.20;55.90;;;;;;5006541;28;20249;-82
2023/06/11 11:17:40;;;;;;;1.50;1.00;;;33.30;56.60;;;;;;4986470;28;20312;-81
2023/06/11 11:20:10;;;;;;;1.60;1.45;;;33.30;55.40;;;;;;4997799;28;20232;-82
2023/06/11 11:22:37;;;;;;;1.40;0.80;;;33.50;54.80;;;;;;4991614;28;20233;-81
2023/06/11 11:25:08;;;;;;;1.40;0.80;;;33.70;54.00;;;;;;4995682;28;20202;-81
2023/06/11 11:27:43;;;;;;;1.40;0.80;;;33.90;54.80;;;;;;4991033;22;20227;-91
2023/06/11 11:30:28;;;;;;;1.48;1.02;;;33.90;54.10;;;;;;4979035;28;20278;-93
2023/06/11 11:36:46;;;;;;;1.40;0.80;;;34.00;54.80;;;;;;4888430;28;20237;-90
2023/06/11 11:42:24;;;;;;;1.40;0.80;;;34.00;53.70;;;;;;4982777;28;20299;-92
2023/06/11 11:47:51;;;;;;;2.03;1.20;;;33.80;54.40;;;;;;4951530;28;20229;-89
2023/06/11 11:53:13;;;;;;;1.40;0.80;;;34.20;54.90;;;;;;4992076;28;20225;-91
2023/06/11 11:55:43;;;;;;;1.40;0.80;;;34.20;54.20;;;;;;5001551;28;20201;-91
2023/06/11 11:58:11;;;;;;;2.50;2.30;;;33.90;54.10;;;;;;4984631;28;20230;-91
2023/06/11 12:00:52;;;;;;;1.40;0.80;;;33.90;55.30;;;;;;5002553;28;20205;-90
2023/06/11 12:03:50;;;;;;;1.40;0.80;;;34.20;53.80;;;;;;4982040;28;20232;-90
2023/06/11 12:06:24;;;;;;;1.40;0.80;;;34.30;55.00;;;;;;4986119;28;20309;-90
2023/06/11 12:08:53;;;;;;;1.40;0.90;;;34.40;54.60;;;;;;5004424;28;20231;-91
2023/06/11 12:11:28;;;;;;;1.40;0.80;;;34.60;55.30;;;;;;4990311;28;20240;-92
2023/06/11 12:13:55;;;;;;;1.40;0.80;;;34.70;54.80;;;;;;5001127;28;20272;-90
2023/06/11 12:16:26;;;;;;;1.40;0.80;;;34.80;55.20;;;;;;4988565;28;20289;-88
2023/06/11 12:19:00;;;;;;;1.90;1.10;;;34.90;54.90;;;;;;4992850;28;20253;-90
2023/06/11 12:21:29;;;;;;;1.40;0.80;;;35.00;54.10;;;;;;4986418;28;20231;-91
2023/06/11 12:23:56;;;;;;;1.50;0.90;;;35.00;53.50;;;;;;5009027;28;20224;-91
2023/06/11 12:26:31;;;;;;;1.40;0.90;;;34.80;54.00;;;;;;4987271;28;20241;-90
2023/06/11 12:29:00;;;;;;;2.00;1.85;;;34.70;54.80;;;;;;4996663;28;20233;-90
2023/06/11 12:31:27;;;;;;;1.40;0.80;;;34.90;54.20;;;;;;4981972;28;20284;-90
2023/06/11 12:33:58;;;;;;;1.40;0.90;;;35.10;53.70;;;;;;4991036;28;20218;-87
2023/06/11 12:36:27;;;;;;;1.40;0.80;;;34.90;53.70;;;;;;4979209;28;20245;-92
2023/06/11 12:38:55;;;;;;;1.40;0.80;;;34.50;52.70;;;;;;4977032;28;20569;-90
2023/06/11 12:41:40;;;;;;;1.40;0.80;;;34.10;54.00;;;;;;4985860;28;20224;-91
2023/06/11 12:44:07;;;;;;;1.40;0.80;;;34.00;53.90;;;;;;4996929;28;20229;-91
2023/06/11 12:46:40;;;;;;;1.40;0.80;;;34.30;54.00;;;;;;4979660;28;20244;-93
2023/06/11 12:49:08;;;;;;;1.35;0.80;;;34.30;53.50;;;;;;4990253;28;20237;-91
2023/06/11 12:51:39;;;;;;;1.40;0.80;;;34.40;53.30;;;;;;4987155;28;20292;-91
2023/06/11 12:54:16;;;;;;;1.40;1.05;;;34.50;53.00;;;;;;4993455;28;20206;-91
2023/06/11 12:56:50;;;;;;;1.40;0.80;;;34.30;53.30;;;;;;4988434;28;20235;-91
2023/06/11 12:59:18;;;;;;;1.40;0.80;;;34.30;54.30;;;;;;4999881;28;20225;-91
2023/06/11 13:01:48;;;;;;;1.40;0.80;;;34.30;52.30;;;;;;4988712;28;20228;-92
2023/06/11 13:04:19;;;;;;;1.70;1.35;;;34.10;53.00;;;;;;4997602;28;20376;-91
2023/06/11 13:06:46;;;;;;;1.40;0.90;;;33.90;53.80;;;;;;4991451;28;20225;-91
2023/06/11 13:11:47;;;;;;;1.40;0.82;;;34.40;53.20;;;;;;4975212;28;20311;-82
2023/06/11 13:14:14;;;;;;;1.40;0.80;;;34.50;53.00;;;;;;4986464;28;20257;-79
2023/06/11 13:16:41;;;;;;;1.40;0.80;;;34.60;52.50;;;;;;4981563;28;20221;-80
2023/06/11 13:19:08;;;;;;;1.40;0.80;;;34.60;52.50;;;;;;4985686;28;20222;-82
2023/06/11 13:21:37;;;;;;;1.50;1.20;;;34.50;51.50;;;;;;4963875;28;20270;-80
2023/06/11 13:24:04;;;;;;;1.40;1.00;;;34.60;51.60;;;;;;4970630;28;20265;-82
2023/06/11 13:26:31;;;;;;;1.73;1.10;;;34.50;51.60;;;;;;4967680;28;20222;-84
2023/06/11 13:28:58;;;;;;;1.40;0.90;;;34.50;51.50;;;;;;4974260;28;20696;-83
2023/06/11 13:31:25;;;;;;;1.40;0.80;;;34.60;51.80;;;;;;4968083;28;20225;-82
2023/06/11 13:33:51;;;;;;;1.40;0.80;;;34.60;50.70;;;;;;4978153;28;20261;-80
2023/06/11 13:36:18;;;;;;;1.40;0.80;;;34.50;51.10;;;;;;4975557;28;20228;-82
2023/06/11 13:38:47;;;;;;;1.33;0.80;;;34.50;51.80;;;;;;4965918;28;20296;-81